• Join FlightAware (Why Join?)
  • Login
  • US Flag 
04:47AM EDT


 

Airport Tracker/Info


-or-


 

Live Flight TrackerFlight Track Log ✈ CTL13 ✈ 29-Apr-2013 ✈ KBKL - KEYE

Flight Track Log - Related Links

Times and Time Zones

All times are in EDT time to prevent confusion due to time zone crossing. See the CTL13 flight status page for this flight to view local times or setup timezone preferences in your user account.

Time Position Orientation Groundspeed Altitude Reporting Facility
EDT Latitude Longitude Course Direction KTS MPH feet Rate Location/Type
06:39PM 41.5356 -81.6817 339° North 126 145 1,200  Level Cleveland Center
06:39PM 41.5522 -81.6903 339° North 128 147 1,800 1,140 Climbing Cleveland Center
06:40PM 41.5856 -81.7103 336° Northwest 137 158 3,000 1,200 Climbing Cleveland Center
06:41PM 41.6164 -81.7358 328° Northwest 109 125 4,500 1,020 Climbing Cleveland Center
06:43PM 41.6306 -81.7806 293° West 120 138 5,400 780 Climbing Cleveland Center
06:43PM 41.6364 -81.8222 281° West 127 146 6,200 840 Climbing Cleveland Center
06:45PM 41.6317 -81.8694 262° West 126 145 7,100 660 Climbing Cleveland Center
06:46PM 41.6103 -81.9161 239° Southwest 142 163 7,700 420 Climbing Cleveland Center
06:47PM 41.5869 -81.9656 238° Southwest 148 170 8,000 120 Climbing Cleveland Center
06:48PM 41.5653 -82.0153 240° Southwest 163 188 8,000  Level Cleveland Center
06:48PM 41.5481 -82.0619 244° Southwest 163 188 8,000 -60 Level Cleveland Center
06:49PM 41.5267 -82.1086 239° Southwest 153 176 7,900 -60 Descending Cleveland Center
06:50PM 41.5050 -82.1581 240° Southwest 154 177 7,900  Level Cleveland Center
06:52PM 41.4814 -82.2100 239° Southwest 154 177 7,900  Level Cleveland Center
06:53PM 41.4642 -82.2594 245° Southwest 156 180 7,900  Level Cleveland Center
06:54PM 41.4403 -82.3117 239° Southwest 159 183 7,900  Level Cleveland Center
06:54PM 41.4189 -82.3581 238° Southwest 158 182 7,900  Level Cleveland Center
06:55PM 41.3972 -82.4100 241° Southwest 157 181 8,000  Climbing Cleveland Center
06:57PM 41.3669 -82.4564 229° Southwest  Level FlightAware Approximate
07:04PM 41.1970 -82.7918 238° Southwest  Level FlightAware Approximate
07:05PM 41.1743 -82.8408 238° Southwest  Level FlightAware Approximate
07:06PM 41.1515 -82.8896 238° Southwest  Level FlightAware Approximate
07:07PM 41.1288 -82.9385 238° Southwest  Level FlightAware Approximate
07:08PM 41.1059 -82.9873 238° Southwest  Level FlightAware Approximate
07:08PM 41.1194 -83.0339 238° Southwest 159 183 8,000  Level Indianapolis Center
07:09PM 41.0835 -83.0364 239° Southwest  Level FlightAware Approximate
07:09PM 41.0994 -83.0858 243° Southwest 158 182 8,000  Level Indianapolis Center
07:10PM 41.0612 -83.0855 239° Southwest  Level FlightAware Approximate
07:10PM 41.0756 -83.1367 238° Southwest 159 183 8,000  Level Indianapolis Center
07:11PM 41.0388 -83.1347 239° Southwest  Level FlightAware Approximate
07:11PM 41.0489 -83.1967 240° Southwest 160 184 8,000  Level Indianapolis Center
07:12PM 41.0165 -83.1837 238° Southwest  Level FlightAware Approximate
07:12PM 41.0283 -83.2486 242° Southwest 159 183 8,000  Level Indianapolis Center
07:13PM 40.9936 -83.2324 238° Southwest  Level FlightAware Approximate
07:13PM 41.0067 -83.3011 241° Southwest 160 184 8,000  Level Indianapolis Center
07:14PM 40.9828 -83.3528 239° Southwest 161 185 8,000  Level Indianapolis Center
07:15PM 40.9592 -83.4044 239° Southwest 162 186 8,000  Level Indianapolis Center
07:16PM 40.9358 -83.4569 240° Southwest 164 189 8,000  Level Indianapolis Center
07:17PM 40.9117 -83.5094 239° Southwest 164 189 8,100  Climbing Indianapolis Center
07:18PM 40.8900 -83.5636 242° Southwest 165 190 8,100 -60 Level Indianapolis Center
07:19PM 40.8683 -83.6175 242° Southwest 165 190 8,000 -60 Descending Indianapolis Center
07:20PM 40.8392 -83.6792 238° Southwest 167 192 8,000  Level Indianapolis Center
07:21PM 40.8164 -83.7331 241° Southwest 167 192 8,000  Level Indianapolis Center
07:22PM 40.7906 -83.7853 237° Southwest 168 193 8,000  Level Indianapolis Center
07:23PM 40.7644 -83.8378 237° Southwest 169 194 8,000  Level Indianapolis Center
07:24PM 40.7411 -83.8906 240° Southwest 168 193 8,000  Level Indianapolis Center
07:25PM 40.7178 -83.9439 240° Southwest 167 192 8,000  Level Indianapolis Center
07:26PM 40.6928 -83.9992 239° Southwest 164 189 8,100  Climbing Indianapolis Center
07:27PM 40.6739 -84.0544 246° West 165 190 8,100  Level Indianapolis Center
07:28PM 40.6556 -84.1044 244° Southwest 165 190 8,100  Level Indianapolis Center
07:29PM 40.6364 -84.1594 245° Southwest 165 190 8,100  Level Indianapolis Center
07:30PM 40.6178 -84.2119 245° Southwest 164 189 8,100 -120 Level Indianapolis Center
07:31PM 40.6133 -84.2258 247° West 164 189 8,000 -180 Descending Indianapolis Center
07:32PM 40.5936 -84.2803 245° Southwest 164 189 7,900  Descending Indianapolis Center
07:32PM 40.5753 -84.3244 241° Southwest 165 190 8,000  Climbing Indianapolis Center
07:33PM 40.5717 -84.3347 245° Southwest 165 190 7,900  Descending Indianapolis Center
07:33PM 40.5542 -84.3794 243° Southwest 164 189 8,000  Climbing Indianapolis Center
07:34PM 40.5517 -84.3903 253° West 166 191 7,900  Descending Indianapolis Center
07:34PM 40.5353 -84.4344 244° Southwest 165 190 8,000  Climbing Indianapolis Center
07:35PM 40.5314 -84.4450 244° Southwest 165 190 7,900  Descending Indianapolis Center
07:35PM 40.5139 -84.4892 242° Southwest 167 192 8,000  Climbing Indianapolis Center
07:36PM 40.5108 -84.4997 249° West 166 191 7,900  Descending Indianapolis Center
07:36PM 40.4978 -84.5364 245° Southwest 165 190 8,000  Climbing Indianapolis Center
07:37PM 40.4911 -84.5556 245° Southwest 167 192 7,900  Descending Indianapolis Center
07:38PM 40.4644 -84.6086 237° Southwest 165 190 8,000 60 Climbing Indianapolis Center
07:38PM 40.4433 -84.6358 224° Southwest 170 196 8,000 -120 Level Indianapolis Center
07:39PM 40.4283 -84.6561 226° Southwest 165 190 7,900  Descending Indianapolis Center
07:39PM 40.4083 -84.6803 223° Southwest 167 192 8,000  Climbing Indianapolis Center
07:40PM 40.3950 -84.7000 228° Southwest 167 192 7,900  Descending Indianapolis Center
07:40PM 40.3753 -84.7250 224° Southwest 168 193 8,000  Climbing Indianapolis Center
07:41PM 40.3614 -84.7439 226° Southwest 168 193 7,900  Descending Indianapolis Center
07:41PM 40.3425 -84.7669 223° Southwest 167 192 8,000  Climbing Indianapolis Center
07:42PM 40.3283 -84.7872 228° Southwest 168 193 7,900 60 Descending Indianapolis Center
07:42PM 40.3114 -84.8117 228° Southwest 169 194 8,100  Climbing Indianapolis Center
07:43PM 40.2981 -84.8339 232° Southwest 168 193 7,900  Descending Indianapolis Center
07:43PM 40.2853 -84.8492 222° Southwest 168 193 8,100 60 Climbing Indianapolis Center
07:44PM 40.2672 -84.8797 232° Southwest 167 192 8,000  Descending Indianapolis Center
07:44PM 40.2511 -84.9044 230° Southwest 167 192 8,100  Climbing Indianapolis Center
07:45PM 40.2369 -84.9258 229° Southwest 166 191 8,000  Descending Indianapolis Center
07:46PM 40.2153 -84.9567 227° Southwest 167 192 8,100  Climbing Indianapolis Center
07:46PM 40.2006 -84.9778 228° Southwest 166 191 8,000  Descending Indianapolis Center
07:47PM 40.1842 -85.0014 228° Southwest 166 191 8,100  Climbing Indianapolis Center
07:47PM 40.1692 -85.0242 229° Southwest 167 192 8,000 -120 Descending Indianapolis Center
07:48PM 40.1378 -85.0683 227° Southwest 166 191 8,000  Level Indianapolis Center
07:49PM 40.1081 -85.1125 229° Southwest 163 188 8,100  Climbing Indianapolis Center
07:50PM 40.0781 -85.1586 230° Southwest 165 190 8,000 -60 Descending Indianapolis Center
07:51PM 40.0483 -85.2053 230° Southwest 167 192 8,000 -240 Level Indianapolis Center
07:52PM 40.0411 -85.2669 261° West 168 193 7,600 -540 Descending Indianapolis Center
07:53PM 40.0275 -85.3303 254° West 178 205 6,900 -660 Descending Indianapolis Center
07:54PM 40.0133 -85.3961 254° West 185 213 6,300 -720 Descending Indianapolis Center
07:55PM 39.9981 -85.4694 255° West 181 208 5,500 -660 Descending Indianapolis Center
07:56PM 39.9856 -85.5303 255° West 176 203 5,000 -300 Descending Indianapolis Center
07:57PM 39.9739 -85.5914 256° West 174 200 5,000  Level Indianapolis Center
07:58PM 39.9614 -85.6486 254° West 168 193 5,000  Level Indianapolis Center
07:59PM 39.9503 -85.7056 256° West 165 190 5,000  Level Indianapolis Center
08:00PM 39.9378 -85.7628 254° West 163 188 5,000  Level Indianapolis Center
08:01PM 39.9258 -85.8186 254° West 161 185 5,000 -300 Level Indianapolis Center
08:02PM 39.9128 -85.8775 254° West 164 189 4,400 -720 Descending Indianapolis Center
08:03PM 39.8994 -85.9397 254° West 172 198 3,600 -660 Descending Indianapolis Center
08:05PM 39.8856 -86.0136 256° West 174 200 3,100 -540 Descending Indianapolis Center